createdAt,value
2023-11-20T00:00:21.389Z,512.00
2023-11-20T00:00:51.443Z,512.00
2023-11-20T00:01:21.510Z,512.00
2023-11-20T00:01:51.997Z,511.00
2023-11-20T00:02:21.716Z,511.00
2023-11-20T00:02:51.882Z,510.00
2023-11-20T00:03:21.920Z,510.00
2023-11-20T00:03:52.494Z,512.00
2023-11-20T00:04:21.969Z,511.00
2023-11-20T00:04:52.055Z,513.00
2023-11-20T00:05:22.062Z,513.00
2023-11-20T00:05:52.057Z,511.00
2023-11-20T00:06:52.249Z,513.00
2023-11-20T00:07:22.165Z,514.00
2023-11-20T00:07:52.182Z,513.00
2023-11-20T00:08:22.290Z,513.00
2023-11-20T00:08:52.277Z,511.00
2023-11-20T00:09:22.332Z,510.00
2023-11-20T00:09:52.466Z,510.00
2023-11-20T00:10:22.455Z,509.00
2023-11-20T00:10:52.447Z,509.00
2023-11-20T00:11:22.590Z,508.00
2023-11-20T00:11:52.598Z,508.00
2023-11-20T00:12:22.596Z,508.00
2023-11-20T00:12:52.724Z,509.00
2023-11-20T00:13:22.627Z,510.00
2023-11-20T00:13:52.669Z,510.00
2023-11-20T00:14:22.742Z,509.00
2023-11-20T00:14:52.754Z,508.00
2023-11-20T00:15:22.791Z,510.00
2023-11-20T00:15:52.944Z,509.00
2023-11-20T00:16:22.971Z,508.00
2023-11-20T00:16:52.933Z,508.00
2023-11-20T00:17:22.969Z,508.00
2023-11-20T00:17:53.010Z,510.00
2023-11-20T00:18:23.023Z,510.00
2023-11-20T00:18:53.068Z,509.00
2023-11-20T00:19:23.136Z,509.00
2023-11-20T00:19:53.174Z,510.00
2023-11-20T00:20:23.206Z,510.00
2023-11-20T00:20:53.242Z,509.00
2023-11-20T00:21:23.286Z,508.00
2023-11-20T00:21:53.402Z,508.00
2023-11-20T00:22:23.412Z,508.00
2023-11-20T00:22:53.446Z,509.00
2023-11-20T00:23:23.496Z,510.00
2023-11-20T00:23:53.525Z,509.00
2023-11-20T00:24:23.552Z,510.00
2023-11-20T00:24:53.656Z,509.00
2023-11-20T00:25:23.700Z,507.00
2023-11-20T00:25:53.730Z,506.00
2023-11-20T00:26:23.766Z,506.00
2023-11-20T00:26:53.797Z,505.00
2023-11-20T00:27:23.832Z,505.00
2023-11-20T00:27:53.900Z,504.00
2023-11-20T00:28:23.912Z,505.00
2023-11-20T00:28:53.952Z,506.00
2023-11-20T00:29:23.987Z,508.00
2023-11-20T00:29:54.012Z,511.00
2023-11-20T00:30:24.071Z,511.00
2023-11-20T00:30:54.142Z,510.00
2023-11-20T00:31:24.200Z,509.00
2023-11-20T00:31:54.257Z,510.00
2023-11-20T00:32:24.294Z,508.00
2023-11-20T00:32:54.371Z,507.00
2023-11-20T00:33:24.421Z,507.00
2023-11-20T00:33:54.541Z,505.00
2023-11-20T00:34:24.482Z,505.00
2023-11-20T00:34:54.528Z,505.00
2023-11-20T00:35:24.571Z,504.00
2023-11-20T00:35:54.596Z,504.00
2023-11-20T00:36:24.632Z,503.00
2023-11-20T00:36:54.697Z,503.00
2023-11-20T00:37:24.732Z,504.00
2023-11-20T00:37:54.760Z,504.00
2023-11-20T00:38:24.796Z,506.00
2023-11-20T00:38:54.823Z,506.00
2023-11-20T00:39:24.885Z,504.00
2023-11-20T00:39:54.979Z,501.00
2023-11-20T00:40:25.033Z,500.00
2023-11-20T00:40:55.045Z,500.00
2023-11-20T00:41:25.077Z,500.00
2023-11-20T00:41:55.109Z,502.00
2023-11-20T00:42:25.159Z,502.00
2023-11-20T00:42:55.207Z,502.00
2023-11-20T00:43:25.238Z,502.00
2023-11-20T00:43:55.256Z,503.00
2023-11-20T00:44:25.331Z,503.00
2023-11-20T00:44:55.349Z,502.00
2023-11-20T00:45:25.381Z,502.00
2023-11-20T00:45:55.494Z,502.00
2023-11-20T00:46:25.530Z,504.00
2023-11-20T00:46:55.610Z,503.00
2023-11-20T00:47:25.709Z,503.00
2023-11-20T00:47:55.701Z,501.00
2023-11-20T00:48:25.731Z,503.00
2023-11-20T00:48:55.782Z,504.00
2023-11-20T00:49:25.827Z,505.00
2023-11-20T00:49:55.847Z,503.00
2023-11-20T00:50:25.879Z,505.00
2023-11-20T00:50:55.921Z,504.00
2023-11-20T00:51:25.952Z,504.00
2023-11-20T00:51:56.023Z,504.00
2023-11-20T00:52:26.039Z,504.00
2023-11-20T00:52:56.102Z,504.00
2023-11-20T00:53:26.153Z,503.00
2023-11-20T00:53:56.190Z,501.00
2023-11-20T00:54:26.220Z,500.00
2023-11-20T00:54:56.271Z,500.00
2023-11-20T00:55:26.292Z,498.00
2023-11-20T00:55:56.352Z,498.00
2023-11-20T00:56:26.397Z,499.00
2023-11-20T00:56:56.419Z,499.00
2023-11-20T00:57:26.457Z,501.00
2023-11-20T00:57:56.530Z,501.00
2023-11-20T00:58:26.584Z,501.00
2023-11-20T00:58:56.611Z,503.00
2023-11-20T00:59:26.643Z,503.00
2023-11-20T00:59:56.689Z,501.00
2023-11-20T01:00:26.726Z,503.00
2023-11-20T01:00:56.836Z,504.00
2023-11-20T01:01:26.880Z,504.00
2023-11-20T01:01:56.944Z,504.00
2023-11-20T01:02:27.011Z,504.00
2023-11-20T01:02:57.118Z,504.00
2023-11-20T01:03:27.203Z,505.00
2023-11-20T01:03:57.263Z,505.00
2023-11-20T01:04:27.379Z,504.00
2023-11-20T01:04:57.390Z,503.00
2023-11-20T01:05:27.389Z,505.00
2023-11-20T01:05:57.508Z,503.00
2023-11-20T01:06:27.643Z,504.00
2023-11-20T01:06:57.662Z,503.00
2023-11-20T01:07:27.674Z,505.00
2023-11-20T01:07:57.668Z,505.00
2023-11-20T01:08:57.751Z,504.00
2023-11-20T01:09:27.886Z,506.00
2023-11-20T01:09:57.947Z,505.00
2023-11-20T01:10:27.930Z,506.00
2023-11-20T01:10:58.059Z,507.00
2023-11-20T01:11:28.070Z,509.00
2023-11-20T01:11:58.180Z,509.00
2023-11-20T01:12:28.261Z,509.00
2023-11-20T01:12:58.329Z,509.00
2023-11-20T01:13:28.378Z,508.00
2023-11-20T01:13:58.413Z,508.00
2023-11-20T01:14:28.453Z,508.00
2023-11-20T01:14:58.522Z,508.00
2023-11-20T01:15:28.563Z,509.00
2023-11-20T01:15:58.614Z,511.00
2023-11-20T01:16:28.659Z,509.00
2023-11-20T01:16:58.718Z,509.00
2023-11-20T01:17:28.763Z,507.00
2023-11-20T01:17:58.902Z,507.00
2023-11-20T01:18:28.926Z,509.00
2023-11-20T01:18:58.893Z,510.00
2023-11-20T01:19:28.926Z,511.00
2023-11-20T01:19:58.980Z,511.00
2023-11-20T01:20:29.007Z,510.00
2023-11-20T01:20:59.038Z,511.00
2023-11-20T01:21:29.126Z,511.00
2023-11-20T01:21:59.138Z,509.00
2023-11-20T01:22:29.182Z,510.00
2023-11-20T01:22:59.217Z,510.00
2023-11-20T01:23:29.245Z,511.00
2023-11-20T01:23:59.281Z,512.00
2023-11-20T01:24:29.338Z,511.00
2023-11-20T01:24:59.525Z,512.00
2023-11-20T01:25:29.363Z,510.00
2023-11-20T01:25:59.487Z,511.00
2023-11-20T01:26:29.405Z,511.00
2023-11-20T01:26:59.490Z,512.00
2023-11-20T01:27:29.590Z,512.00
2023-11-20T01:27:59.578Z,511.00
2023-11-20T01:28:29.603Z,509.00
2023-11-20T01:28:59.635Z,509.00
2023-11-20T01:29:29.673Z,510.00
2023-11-20T01:29:59.706Z,511.00
2023-11-20T01:30:29.742Z,511.00
2023-11-20T01:30:59.859Z,510.00
2023-11-20T01:31:29.837Z,509.00
2023-11-20T01:31:59.867Z,508.00
2023-11-20T01:32:29.938Z,508.00
2023-11-20T01:33:00.052Z,508.00
2023-11-20T01:33:30.121Z,507.00
2023-11-20T01:34:00.162Z,508.00
2023-11-20T01:34:30.225Z,506.00
2023-11-20T01:35:00.324Z,506.00
2023-11-20T01:35:30.414Z,505.00
2023-11-20T01:36:00.373Z,506.00
2023-11-20T01:36:30.467Z,506.00
2023-11-20T01:37:00.563Z,506.00
2023-11-20T01:37:30.553Z,505.00
2023-11-20T01:38:00.599Z,504.00
2023-11-20T01:38:30.631Z,505.00
2023-11-20T01:39:00.664Z,504.00
2023-11-20T01:39:30.724Z,505.00
2023-11-20T01:40:00.810Z,505.00
2023-11-20T01:40:30.882Z,506.00
2023-11-20T01:41:00.908Z,507.00
2023-11-20T01:41:30.949Z,506.00
2023-11-20T01:42:00.976Z,507.00
2023-11-20T01:42:31.055Z,506.00
2023-11-20T01:43:01.141Z,505.00
2023-11-20T01:43:31.171Z,504.00
2023-11-20T01:44:01.196Z,503.00
2023-11-20T01:44:31.251Z,503.00
2023-11-20T01:45:01.294Z,506.00
2023-11-20T01:45:31.366Z,508.00
2023-11-20T01:46:01.498Z,507.00
2023-11-20T01:46:31.469Z,507.00
2023-11-20T01:47:01.446Z,505.00
2023-11-20T01:47:31.517Z,508.00
2023-11-20T01:48:01.633Z,507.00
2023-11-20T01:48:31.714Z,506.00
2023-11-20T01:49:01.758Z,505.00
2023-11-20T01:49:31.810Z,505.00
2023-11-20T01:50:01.857Z,503.00
2023-11-20T01:50:31.875Z,503.00
2023-11-20T01:51:01.918Z,503.00
2023-11-20T01:51:31.980Z,505.00
2023-11-20T01:52:02.057Z,507.00
2023-11-20T01:52:32.098Z,508.00
2023-11-20T01:53:02.133Z,509.00
2023-11-20T01:53:32.164Z,509.00
2023-11-20T01:54:02.206Z,510.00
2023-11-20T01:54:32.279Z,508.00
2023-11-20T01:55:02.367Z,508.00
2023-11-20T01:55:32.384Z,506.00
2023-11-20T01:56:02.427Z,507.00
2023-11-20T01:56:32.442Z,506.00
2023-11-20T01:57:02.489Z,506.00
2023-11-20T01:57:32.583Z,506.00
2023-11-20T01:58:02.724Z,505.00
2023-11-20T01:58:32.645Z,506.00
2023-11-20T01:59:02.688Z,507.00
2023-11-20T01:59:32.729Z,506.00
2023-11-20T02:00:02.793Z,506.00
2023-11-20T02:00:32.820Z,506.00
2023-11-20T02:01:02.934Z,507.00
2023-11-20T02:01:32.927Z,505.00
2023-11-20T02:02:02.987Z,505.00
2023-11-20T02:02:33.046Z,504.00
2023-11-20T02:03:03.114Z,502.00
2023-11-20T02:03:33.234Z,505.00
2023-11-20T02:04:03.287Z,504.00
2023-11-20T02:04:33.321Z,504.00
2023-11-20T02:05:03.425Z,505.00
2023-11-20T02:05:33.545Z,506.00
2023-11-20T02:06:03.540Z,507.00
2023-11-20T02:07:03.660Z,507.00
2023-11-20T02:07:33.645Z,505.00
2023-11-20T02:08:03.655Z,506.00
2023-11-20T02:08:33.678Z,505.00
2023-11-20T02:09:03.695Z,503.00
2023-11-20T02:09:33.736Z,503.00
2023-11-20T02:10:03.822Z,504.00
2023-11-20T02:10:33.798Z,505.00
2023-11-20T02:11:04.020Z,503.00
2023-11-20T02:11:33.996Z,503.00
2023-11-20T02:12:04.121Z,503.00
2023-11-20T02:12:34.199Z,504.00
2023-11-20T02:13:04.277Z,504.00
2023-11-20T02:13:34.319Z,502.00
2023-11-20T02:14:04.351Z,502.00
2023-11-20T02:14:34.409Z,503.00
2023-11-20T02:15:04.420Z,504.00
2023-11-20T02:15:34.470Z,502.00
2023-11-20T02:16:04.542Z,505.00
2023-11-20T02:16:34.570Z,504.00
2023-11-20T02:17:04.633Z,505.00
2023-11-20T02:17:34.872Z,505.00
2023-11-20T02:18:04.747Z,504.00
2023-11-20T02:18:34.833Z,504.00
2023-11-20T02:19:04.893Z,505.00
2023-11-20T02:19:34.946Z,505.00
2023-11-20T02:20:04.971Z,504.00
2023-11-20T02:20:34.996Z,505.00
2023-11-20T02:21:05.036Z,507.00
2023-11-20T02:21:35.082Z,508.00
2023-11-20T02:22:05.160Z,508.00
2023-11-20T02:22:35.224Z,509.00
2023-11-20T02:23:05.308Z,510.00
2023-11-20T02:23:35.327Z,511.00
2023-11-20T02:24:05.365Z,512.00
2023-11-20T02:24:35.442Z,514.00
2023-11-20T02:25:05.526Z,513.00
2023-11-20T02:25:35.577Z,512.00
2023-11-20T02:26:05.604Z,512.00
2023-11-20T02:26:35.637Z,512.00
2023-11-20T02:27:05.680Z,513.00
2023-11-20T02:27:35.739Z,514.00
2023-11-20T02:28:05.978Z,514.00
2023-11-20T02:28:35.944Z,512.00
2023-11-20T02:29:05.977Z,511.00
2023-11-20T02:29:35.991Z,511.00
2023-11-20T02:30:06.086Z,511.00
2023-11-20T02:30:36.042Z,510.00
2023-11-20T02:31:06.212Z,509.00
2023-11-20T02:31:36.164Z,510.00
2023-11-20T02:32:06.206Z,509.00
2023-11-20T02:32:36.291Z,512.00
2023-11-20T02:33:06.400Z,512.00
2023-11-20T02:33:36.306Z,512.00
2023-11-20T02:34:06.443Z,511.00
2023-11-20T02:34:36.407Z,512.00
2023-11-20T02:35:06.437Z,512.00
2023-11-20T02:35:36.466Z,511.00
2023-11-20T02:36:06.521Z,511.00
2023-11-20T02:36:36.606Z,511.00
2023-11-20T02:37:06.684Z,511.00
2023-11-20T02:37:36.718Z,512.00
2023-11-20T02:38:06.750Z,511.00
2023-11-20T02:38:36.779Z,511.00
2023-11-20T02:39:06.819Z,511.00
2023-11-20T02:39:36.878Z,509.00
2023-11-20T02:40:06.931Z,510.00
2023-11-20T02:40:36.961Z,510.00
2023-11-20T02:41:07.006Z,510.00
2023-11-20T02:41:37.033Z,509.00
2023-11-20T02:42:07.061Z,511.00
2023-11-20T02:42:37.182Z,512.00
2023-11-20T02:43:07.209Z,514.00
2023-11-20T02:43:37.155Z,514.00
2023-11-20T02:44:07.215Z,514.00
2023-11-20T02:44:37.217Z,514.00
2023-11-20T02:45:07.271Z,514.00
2023-11-20T02:45:37.320Z,513.00
2023-11-20T02:46:07.434Z,513.00
2023-11-20T02:46:37.456Z,512.00
2023-11-20T02:47:07.577Z,511.00
2023-11-20T02:47:37.553Z,511.00
2023-11-20T02:48:07.632Z,512.00
2023-11-20T02:48:37.685Z,513.00
2023-11-20T02:49:07.756Z,515.00
2023-11-20T02:49:37.814Z,515.00
2023-11-20T02:50:07.878Z,515.00
2023-11-20T02:50:37.909Z,514.00
2023-11-20T02:51:07.942Z,513.00
2023-11-20T02:51:38.004Z,514.00
2023-11-20T02:52:08.071Z,513.00
2023-11-20T02:52:38.118Z,513.00
2023-11-20T02:53:08.156Z,512.00
2023-11-20T02:53:38.185Z,508.00
2023-11-20T02:54:08.217Z,507.00
2023-11-20T02:54:38.281Z,507.00
2023-11-20T02:55:08.528Z,507.00
2023-11-20T02:55:38.375Z,507.00
2023-11-20T02:56:08.396Z,507.00
2023-11-20T02:56:38.429Z,505.00
2023-11-20T02:57:08.458Z,506.00
2023-11-20T02:57:38.536Z,508.00
2023-11-20T02:58:08.594Z,509.00
2023-11-20T02:58:38.618Z,510.00
2023-11-20T02:59:08.678Z,510.00
2023-11-20T02:59:38.711Z,513.00
2023-11-20T03:00:08.737Z,512.00
2023-11-20T03:00:38.792Z,512.00
2023-11-20T03:01:08.912Z,511.00
2023-11-20T03:01:38.888Z,511.00
2023-11-20T03:02:08.915Z,511.00
2023-11-20T03:02:38.984Z,510.00
2023-11-20T03:03:09.091Z,509.00
2023-11-20T03:03:39.252Z,509.00
2023-11-20T03:04:09.111Z,508.00
2023-11-20T03:04:39.157Z,507.00
2023-11-20T03:05:09.346Z,507.00
2023-11-20T03:05:39.166Z,508.00
2023-11-20T03:06:09.157Z,507.00
2023-11-20T03:07:09.256Z,507.00
2023-11-20T03:07:39.236Z,507.00
2023-11-20T03:08:09.356Z,506.00
2023-11-20T03:08:39.503Z,506.00
2023-11-20T03:09:09.501Z,506.00
2023-11-20T03:09:39.527Z,504.00
2023-11-20T03:10:09.572Z,503.00
2023-11-20T03:10:39.562Z,503.00
2023-11-20T03:11:13.308Z,503.00
2023-11-20T03:11:39.708Z,503.00
2023-11-20T03:12:09.702Z,502.00
2023-11-20T03:12:39.768Z,504.00
2023-11-20T03:13:09.847Z,503.00
2023-11-20T03:13:39.889Z,504.00
2023-11-20T03:14:09.914Z,504.00
2023-11-20T03:14:39.974Z,504.00
2023-11-20T03:15:09.976Z,505.00
2023-11-20T03:15:40.135Z,505.00
2023-11-20T03:16:10.297Z,506.00
2023-11-20T03:16:40.193Z,507.00
2023-11-20T03:17:10.312Z,507.00
2023-11-20T03:17:40.247Z,507.00
2023-11-20T03:18:10.247Z,508.00
2023-11-20T03:18:40.373Z,510.00
2023-11-20T03:19:10.323Z,512.00
2023-11-20T03:19:40.358Z,513.00
2023-11-20T03:20:10.386Z,513.00
2023-11-20T03:20:40.412Z,514.00
2023-11-20T03:21:10.446Z,515.00
2023-11-20T03:21:40.516Z,516.00
2023-11-20T03:22:10.576Z,516.00
2023-11-20T03:22:40.615Z,514.00
2023-11-20T03:23:10.662Z,514.00
2023-11-20T03:23:40.699Z,514.00
2023-11-20T03:24:10.745Z,512.00
2023-11-20T03:24:40.798Z,510.00
2023-11-20T03:25:10.896Z,509.00
2023-11-20T03:25:40.822Z,510.00
2023-11-20T03:26:10.844Z,510.00
2023-11-20T03:26:40.884Z,510.00
2023-11-20T03:27:10.920Z,509.00
2023-11-20T03:27:40.977Z,508.00
2023-11-20T03:28:11.044Z,507.00
2023-11-20T03:28:41.073Z,507.00
2023-11-20T03:29:11.104Z,508.00
2023-11-20T03:29:41.125Z,508.00
2023-11-20T03:30:11.182Z,507.00
2023-11-20T03:30:41.246Z,508.00
2023-11-20T03:31:11.370Z,507.00
2023-11-20T03:31:41.336Z,508.00
2023-11-20T03:32:11.394Z,506.00
2023-11-20T03:32:41.955Z,508.00
2023-11-20T03:33:11.469Z,509.00
2023-11-20T03:33:41.559Z,507.00
2023-11-20T03:34:11.737Z,509.00
2023-11-20T03:34:41.730Z,510.00
2023-11-20T03:35:11.677Z,510.00
2023-11-20T03:35:41.803Z,508.00
2023-11-20T03:36:11.854Z,509.00
2023-11-20T03:36:41.940Z,507.00
2023-11-20T03:37:11.931Z,508.00
2023-11-20T03:37:41.948Z,506.00
2023-11-20T03:38:11.974Z,506.00
2023-11-20T03:38:42.008Z,506.00
2023-11-20T03:39:12.040Z,504.00
2023-11-20T03:39:42.088Z,503.00
2023-11-20T03:40:12.198Z,505.00
2023-11-20T03:40:42.242Z,503.00
2023-11-20T03:41:12.275Z,503.00
2023-11-20T03:41:42.330Z,503.00
2023-11-20T03:42:12.359Z,501.00
2023-11-20T03:42:42.417Z,503.00
2023-11-20T03:43:12.478Z,502.00
2023-11-20T03:43:42.510Z,502.00
2023-11-20T03:44:12.544Z,501.00
2023-11-20T03:44:42.577Z,500.00
2023-11-20T03:45:12.601Z,501.00
2023-11-20T03:45:42.683Z,503.00
2023-11-20T03:46:12.831Z,503.00
2023-11-20T03:46:42.778Z,503.00
2023-11-20T03:47:12.806Z,502.00
2023-11-20T03:47:42.868Z,501.00
2023-11-20T03:48:12.886Z,501.00
2023-11-20T03:48:42.951Z,502.00
2023-11-20T03:49:12.991Z,502.00
2023-11-20T03:49:43.022Z,501.00
2023-11-20T03:50:13.047Z,501.00
2023-11-20T03:50:43.088Z,499.00
2023-11-20T03:51:13.129Z,501.00
2023-11-20T03:51:43.179Z,502.00
2023-11-20T03:52:13.241Z,501.00
2023-11-20T03:52:43.281Z,499.00
2023-11-20T03:53:13.308Z,499.00
2023-11-20T03:53:43.337Z,499.00
2023-11-20T03:54:13.369Z,498.00
2023-11-20T03:54:43.500Z,498.00
2023-11-20T03:55:13.461Z,500.00
2023-11-20T03:55:43.532Z,501.00
2023-11-20T03:56:13.627Z,501.00
2023-11-20T03:56:43.560Z,502.00
2023-11-20T03:57:13.609Z,501.00
2023-11-20T03:57:43.659Z,501.00
2023-11-20T03:58:13.726Z,502.00
2023-11-20T03:58:43.766Z,502.00
2023-11-20T03:59:13.811Z,503.00
2023-11-20T03:59:43.832Z,503.00
2023-11-20T04:00:13.863Z,501.00
2023-11-20T04:00:43.983Z,502.00
2023-11-20T04:01:14.350Z,502.00
2023-11-20T04:01:44.066Z,500.00
2023-11-20T04:02:14.092Z,500.00
2023-11-20T04:02:44.287Z,502.00
2023-11-20T04:03:14.270Z,502.00
2023-11-20T04:03:44.448Z,503.00
2023-11-20T04:04:14.621Z,502.00
2023-11-20T04:04:44.578Z,501.00
2023-11-20T04:05:14.584Z,502.00
2023-11-20T04:05:44.578Z,501.00
2023-11-20T04:06:14.703Z,499.00
2023-11-20T04:06:44.857Z,500.00
2023-11-20T04:07:14.832Z,502.00
2023-11-20T04:07:44.960Z,502.00
2023-11-20T04:08:14.956Z,503.00
2023-11-20T04:09:15.036Z,503.00
2023-11-20T04:09:45.050Z,503.00
2023-11-20T04:10:45.100Z,504.00
2023-11-20T04:11:15.095Z,505.00
2023-11-20T04:11:45.221Z,505.00
2023-11-20T04:12:15.328Z,504.00
2023-11-20T04:12:45.377Z,502.00
2023-11-20T04:13:15.449Z,502.00
2023-11-20T04:13:45.464Z,502.00
2023-11-20T04:14:15.498Z,504.00
2023-11-20T04:14:45.535Z,504.00
2023-11-20T04:15:15.569Z,504.00
2023-11-20T04:15:45.609Z,504.00
2023-11-20T04:16:15.744Z,502.00
2023-11-20T04:16:45.707Z,501.00
2023-11-20T04:17:15.763Z,502.00
2023-11-20T04:17:45.832Z,503.00
2023-11-20T04:18:15.781Z,503.00
2023-11-20T04:18:45.819Z,504.00
2023-11-20T04:19:15.841Z,505.00
2023-11-20T04:19:45.915Z,504.00
2023-11-20T04:20:16.022Z,504.00
2023-11-20T04:20:46.022Z,503.00
2023-11-20T04:21:16.032Z,504.00
2023-11-20T04:21:46.151Z,504.00
2023-11-20T04:22:16.086Z,503.00
2023-11-20T04:22:46.105Z,503.00
2023-11-20T04:23:16.152Z,503.00
2023-11-20T04:23:46.208Z,503.00
2023-11-20T04:24:16.256Z,502.00
2023-11-20T04:24:46.303Z,502.00
2023-11-20T04:25:16.365Z,502.00
2023-11-20T04:25:46.364Z,500.00
2023-11-20T04:26:16.394Z,499.00
2023-11-20T04:26:46.439Z,498.00
2023-11-20T04:27:16.495Z,497.00
2023-11-20T04:27:46.538Z,495.00
2023-11-20T04:28:16.608Z,497.00
2023-11-20T04:28:46.648Z,497.00
2023-11-20T04:29:16.682Z,496.00
2023-11-20T04:29:46.713Z,497.00
2023-11-20T04:30:16.747Z,498.00
2023-11-20T04:30:46.828Z,497.00
2023-11-20T04:31:16.945Z,498.00
2023-11-20T04:31:47.092Z,497.00
2023-11-20T04:32:16.993Z,496.00
2023-11-20T04:32:47.484Z,496.00
2023-11-20T04:33:17.139Z,497.00
2023-11-20T04:34:17.290Z,499.00
2023-11-20T04:34:47.320Z,499.00
2023-11-20T04:35:17.349Z,500.00
2023-11-20T04:35:47.377Z,500.00
2023-11-20T04:36:17.418Z,500.00
2023-11-20T04:36:47.460Z,501.00
2023-11-20T04:37:17.483Z,501.00
2023-11-20T04:37:47.540Z,502.00
2023-11-20T04:38:17.561Z,502.00
2023-11-20T04:38:47.600Z,504.00
2023-11-20T04:39:17.623Z,504.00
2023-11-20T04:39:47.677Z,503.00
2023-11-20T04:40:17.758Z,502.00
2023-11-20T04:40:47.788Z,501.00
2023-11-20T04:41:17.813Z,502.00
2023-11-20T04:41:47.845Z,502.00
2023-11-20T04:42:17.900Z,503.00
2023-11-20T04:42:47.955Z,503.00
2023-11-20T04:43:17.970Z,503.00
2023-11-20T04:43:48.006Z,504.00
2023-11-20T04:44:18.035Z,508.00
2023-11-20T04:44:48.075Z,514.00
2023-11-20T04:45:18.110Z,515.00
2023-11-20T04:45:48.199Z,516.00
2023-11-20T04:46:18.308Z,519.00
2023-11-20T04:46:48.292Z,520.00
2023-11-20T04:47:18.345Z,522.00
2023-11-20T04:47:48.385Z,521.00
2023-11-20T04:48:18.424Z,521.00
2023-11-20T04:48:48.500Z,521.00
2023-11-20T04:49:18.558Z,524.00
2023-11-20T04:49:48.600Z,530.00
2023-11-20T04:50:18.642Z,532.00
2023-11-20T04:50:48.664Z,540.00
2023-11-20T04:51:18.702Z,554.00
2023-11-20T04:51:48.765Z,563.00
2023-11-20T04:52:18.832Z,566.00
2023-11-20T04:52:48.880Z,573.00
2023-11-20T04:53:18.919Z,575.00
2023-11-20T04:53:48.956Z,576.00
2023-11-20T04:54:18.982Z,574.00
2023-11-20T04:54:49.061Z,571.00
2023-11-20T04:55:19.098Z,566.00
2023-11-20T04:55:49.124Z,563.00
2023-11-20T04:56:19.154Z,563.00
2023-11-20T04:56:49.193Z,565.00
2023-11-20T04:57:19.228Z,566.00
2023-11-20T04:57:49.289Z,566.00
2023-11-20T04:58:19.356Z,569.00
2023-11-20T04:58:49.475Z,572.00
2023-11-20T04:59:19.513Z,575.00
2023-11-20T04:59:49.590Z,578.00
2023-11-20T05:00:19.601Z,583.00
2023-11-20T05:00:49.719Z,585.00
2023-11-20T05:01:19.722Z,587.00
2023-11-20T05:01:49.757Z,592.00
2023-11-20T05:02:19.824Z,593.00
2023-11-20T05:02:49.855Z,595.00
2023-11-20T05:03:19.883Z,595.00
2023-11-20T05:03:50.450Z,600.00
2023-11-20T05:04:20.045Z,605.00
2023-11-20T05:04:50.111Z,607.00
2023-11-20T05:05:20.246Z,610.00
2023-11-20T05:05:50.369Z,612.00
2023-11-20T05:06:20.378Z,614.00
2023-11-20T05:06:50.427Z,616.00
2023-11-20T05:07:20.419Z,620.00
2023-11-20T05:07:50.540Z,622.00
2023-11-20T05:08:20.659Z,623.00
2023-11-20T05:08:50.667Z,624.00
2023-11-20T05:09:20.774Z,625.00
2023-11-20T05:09:50.921Z,627.00
2023-11-20T05:10:20.923Z,627.00
2023-11-20T05:10:50.919Z,629.00
2023-11-20T05:11:20.912Z,629.00
2023-11-20T05:11:51.032Z,629.00
2023-11-20T05:12:21.026Z,631.00
2023-11-20T05:12:51.078Z,633.00
2023-11-20T05:13:21.122Z,634.00
2023-11-20T05:13:51.160Z,637.00
2023-11-20T05:14:21.232Z,643.00
2023-11-20T05:14:51.238Z,643.00
2023-11-20T05:15:21.280Z,643.00
2023-11-20T05:15:51.322Z,645.00
2023-11-20T05:16:21.353Z,645.00
2023-11-20T05:16:51.406Z,645.00
2023-11-20T05:17:21.480Z,648.00
2023-11-20T05:17:51.538Z,649.00
2023-11-20T05:18:21.600Z,649.00
2023-11-20T05:18:51.621Z,651.00
2023-11-20T05:19:21.652Z,652.00
2023-11-20T05:19:51.705Z,652.00
2023-11-20T05:20:21.752Z,653.00
2023-11-20T05:20:51.774Z,653.00
2023-11-20T05:21:21.806Z,653.00
2023-11-20T05:21:51.903Z,653.00
2023-11-20T05:22:21.941Z,653.00
2023-11-20T05:22:51.977Z,655.00
2023-11-20T05:23:22.007Z,655.00
2023-11-20T05:23:52.049Z,658.00
2023-11-20T05:24:22.078Z,658.00
2023-11-20T05:24:52.202Z,662.00
2023-11-20T05:25:22.123Z,664.00
2023-11-20T05:25:52.194Z,666.00
2023-11-20T05:26:22.211Z,666.00
2023-11-20T05:26:52.247Z,669.00
2023-11-20T05:27:22.289Z,679.00
2023-11-20T05:27:52.319Z,691.00
2023-11-20T05:28:22.352Z,693.00
2023-11-20T05:28:52.408Z,697.00
2023-11-20T05:29:22.443Z,698.00
2023-11-20T05:29:52.472Z,700.00
2023-11-20T05:30:22.509Z,700.00
2023-11-20T05:30:52.574Z,699.00
2023-11-20T05:31:22.762Z,700.00
2023-11-20T05:31:52.811Z,699.00
2023-11-20T05:32:22.780Z,699.00
2023-11-20T05:32:53.340Z,699.00
2023-11-20T05:33:22.998Z,702.00
2023-11-20T05:33:53.060Z,703.00
2023-11-20T05:34:22.952Z,705.00
2023-11-20T05:34:53.039Z,710.00
2023-11-20T05:35:23.125Z,711.00
2023-11-20T05:35:53.197Z,714.00
2023-11-20T05:36:23.311Z,718.00
2023-11-20T05:36:53.299Z,721.00
2023-11-20T05:37:23.350Z,720.00
2023-11-20T05:37:53.409Z,721.00
2023-11-20T05:38:23.516Z,721.00
2023-11-20T05:38:53.494Z,720.00
2023-11-20T05:39:23.587Z,719.00
2023-11-20T05:39:53.743Z,717.00
2023-11-20T05:40:23.768Z,716.00
2023-11-20T05:40:53.740Z,715.00
2023-11-20T05:41:23.813Z,712.00
2023-11-20T05:41:53.916Z,713.00
2023-11-20T05:42:24.023Z,711.00
2023-11-20T05:42:54.186Z,707.00
2023-11-20T05:43:24.210Z,703.00
2023-11-20T05:43:54.145Z,699.00
2023-11-20T05:44:24.226Z,696.00
2023-11-20T05:44:54.313Z,691.00
2023-11-20T05:45:24.378Z,690.00
2023-11-20T05:45:54.453Z,688.00
2023-11-20T05:46:54.664Z,684.00
2023-11-20T05:47:24.723Z,682.00
2023-11-20T05:47:54.673Z,681.00
2023-11-20T05:48:24.732Z,678.00
2023-11-20T05:48:54.861Z,676.00
2023-11-20T05:50:01.501Z,657.00
2023-11-20T05:50:31.499Z,657.00
2023-11-20T05:51:01.516Z,656.00
2023-11-20T05:51:31.538Z,651.00
2023-11-20T05:52:01.601Z,648.00
2023-11-20T05:52:31.644Z,648.00
2023-11-20T05:53:01.650Z,647.00
2023-11-20T05:53:31.663Z,648.00
2023-11-20T05:54:01.670Z,647.00
2023-11-20T05:54:31.791Z,646.00
2023-11-20T05:55:01.809Z,646.00
2023-11-20T05:56:01.895Z,644.00
2023-11-20T05:56:31.898Z,642.00
2023-11-20T05:57:02.072Z,642.00
2023-11-20T05:57:32.092Z,641.00
2023-11-20T05:58:02.184Z,641.00
2023-11-20T05:58:32.203Z,642.00
2023-11-20T05:59:04.733Z,641.00
2023-11-20T05:59:32.310Z,642.00
2023-11-20T06:00:02.373Z,640.00
2023-11-20T06:00:32.423Z,637.00
2023-11-20T06:01:02.535Z,636.00
2023-11-20T06:01:32.672Z,636.00
2023-11-20T06:02:02.685Z,636.00
2023-11-20T06:02:32.761Z,636.00
2023-11-20T06:03:02.883Z,635.00
2023-11-20T06:03:32.952Z,634.00
2023-11-20T06:04:03.100Z,632.00
2023-11-20T06:04:33.079Z,631.00
2023-11-20T06:05:03.160Z,633.00
2023-11-20T06:05:33.202Z,631.00
2023-11-20T06:06:03.250Z,632.00
2023-11-20T06:06:33.323Z,630.00
2023-11-20T06:07:03.410Z,628.00
2023-11-20T06:07:33.437Z,628.00
2023-11-20T06:08:03.494Z,627.00
2023-11-20T06:08:33.538Z,628.00
2023-11-20T06:09:03.579Z,628.00
2023-11-20T06:09:33.619Z,627.00
2023-11-20T06:10:04.094Z,627.00
2023-11-20T06:10:33.667Z,625.00
2023-11-20T06:11:03.769Z,623.00
2023-11-20T06:11:35.000Z,621.00
2023-11-20T06:12:03.873Z,618.00
2023-11-20T06:12:33.890Z,618.00
2023-11-20T06:13:03.990Z,622.00
2023-11-20T06:13:34.066Z,625.00
2023-11-20T06:14:04.148Z,629.00
2023-11-20T06:14:34.169Z,633.00
2023-11-20T06:15:04.176Z,636.00
2023-11-20T06:15:34.242Z,635.00
2023-11-20T06:16:04.376Z,636.00
2023-11-20T06:16:34.301Z,635.00
2023-11-20T06:17:34.357Z,634.00
2023-11-20T06:18:04.394Z,635.00
2023-11-20T06:18:34.416Z,636.00
2023-11-20T06:19:04.521Z,642.00
2023-11-20T06:19:34.460Z,654.00
2023-11-20T06:20:04.504Z,665.00
2023-11-20T06:20:34.631Z,666.00